createdAt,value
2023-04-08T00:00:51.847Z,18.87
2023-04-08T00:06:13.803Z,18.84
2023-04-08T00:11:36.223Z,18.83
2023-04-08T00:16:58.305Z,18.81
2023-04-08T00:22:20.449Z,18.79
2023-04-08T00:27:42.299Z,18.76
2023-04-08T00:33:04.768Z,18.75
2023-04-08T00:38:26.998Z,18.72
2023-04-08T00:43:48.938Z,18.70
2023-04-08T00:49:10.901Z,18.68
2023-04-08T00:54:32.759Z,18.67
2023-04-08T00:59:54.804Z,18.65
2023-04-08T01:05:29.081Z,18.65
2023-04-08T01:10:58.953Z,18.64
2023-04-08T01:16:22.922Z,18.62
2023-04-08T01:21:45.677Z,18.60
2023-04-08T01:27:08.728Z,18.59
2023-04-08T01:32:33.062Z,18.58
2023-04-08T01:37:55.977Z,18.55
2023-04-08T01:43:19.285Z,18.53
2023-04-08T01:48:41.833Z,18.51
2023-04-08T01:54:03.859Z,18.50
2023-04-08T01:59:32.011Z,18.49
2023-04-08T02:04:54.952Z,18.47
2023-04-08T02:10:17.648Z,18.45
2023-04-08T02:15:45.361Z,18.44
2023-04-08T02:21:13.943Z,18.43
2023-04-08T02:26:38.666Z,18.41
2023-04-08T02:32:02.549Z,18.40
2023-04-08T02:37:24.517Z,18.38
2023-04-08T02:42:46.546Z,18.37
2023-04-08T02:48:08.442Z,18.35
2023-04-08T02:53:30.335Z,18.35
2023-04-08T02:58:52.462Z,18.34
2023-04-08T03:04:14.489Z,18.30
2023-04-08T03:09:36.332Z,18.30
2023-04-08T03:14:58.333Z,18.29
2023-04-08T03:20:20.514Z,18.29
2023-04-08T03:25:42.449Z,18.28
2023-04-08T03:31:05.292Z,18.25
2023-04-08T03:36:27.145Z,18.24
2023-04-08T03:41:48.985Z,18.22
2023-04-08T03:47:10.954Z,18.22
2023-04-08T03:52:32.871Z,18.20
2023-04-08T03:57:54.747Z,18.19
2023-04-08T04:03:16.970Z,18.18
2023-04-08T04:08:39.017Z,18.17
2023-04-08T04:14:00.859Z,18.15
2023-04-08T04:19:22.738Z,18.14
2023-04-08T04:24:48.932Z,18.12
2023-04-08T04:30:15.808Z,18.12
2023-04-08T04:35:39.534Z,18.10
2023-04-08T04:41:01.960Z,18.09
2023-04-08T04:46:23.877Z,18.09
2023-04-08T04:51:45.858Z,18.07
2023-04-08T04:57:07.810Z,18.07
2023-04-08T05:02:29.807Z,18.06
2023-04-08T05:07:52.037Z,18.05
2023-04-08T05:13:14.184Z,18.04
2023-04-08T05:18:36.360Z,18.03
2023-04-08T05:23:58.279Z,18.03
2023-04-08T05:29:22.067Z,18.02
2023-04-08T05:34:44.504Z,18.04
2023-04-08T05:40:07.165Z,18.26
2023-04-08T05:45:29.769Z,18.74
2023-04-08T05:50:51.660Z,19.17
2023-04-08T05:56:13.539Z,19.41
2023-04-08T06:01:35.814Z,19.50
2023-04-08T06:07:00.074Z,19.50
2023-04-08T06:12:22.045Z,19.49
2023-04-08T06:17:44.026Z,19.43
2023-04-08T06:23:06.232Z,19.37
2023-04-08T06:28:30.437Z,19.31
2023-04-08T06:33:52.804Z,19.22
2023-04-08T06:39:15.670Z,19.14
2023-04-08T06:44:37.500Z,19.06
2023-04-08T06:49:59.858Z,18.98
2023-04-08T06:55:21.728Z,18.89
2023-04-08T07:00:44.005Z,18.83
2023-04-08T07:06:06.086Z,18.81
2023-04-08T07:11:28.206Z,18.88
2023-04-08T07:16:50.249Z,18.97
2023-04-08T07:22:12.225Z,19.05
2023-04-08T07:27:34.736Z,19.14
2023-04-08T07:33:00.474Z,19.19
2023-04-08T07:38:22.744Z,19.25
2023-04-08T07:43:44.620Z,19.42
2023-04-08T07:49:07.060Z,19.72
2023-04-08T07:54:29.028Z,19.97
2023-04-08T07:59:51.076Z,20.17
2023-04-08T08:05:12.966Z,20.33
2023-04-08T08:10:34.877Z,20.42
2023-04-08T08:15:57.500Z,20.48
2023-04-08T08:21:19.354Z,20.47
2023-04-08T08:26:41.158Z,20.42
2023-04-08T08:32:04.008Z,20.34
2023-04-08T08:37:26.031Z,20.24
2023-04-08T08:42:55.276Z,20.26
2023-04-08T08:48:17.936Z,20.18
2023-04-08T08:53:40.530Z,20.12
2023-04-08T08:59:02.609Z,20.07
2023-04-08T09:04:24.757Z,20.08
2023-04-08T09:09:51.447Z,20.09
2023-04-08T09:15:13.297Z,20.07
2023-04-08T09:20:35.145Z,20.05
2023-04-08T09:26:07.672Z,20.02
2023-04-08T09:31:32.041Z,19.97
2023-04-08T09:36:54.827Z,19.95
2023-04-08T09:42:19.920Z,19.87
2023-04-08T09:48:02.216Z,19.78
2023-04-08T09:53:34.723Z,19.66
2023-04-08T09:59:03.991Z,19.59
2023-04-08T10:04:29.549Z,19.55
2023-04-08T10:09:52.057Z,19.56
2023-04-08T10:15:26.780Z,19.63
2023-04-08T10:20:49.490Z,19.66
2023-04-08T10:26:32.129Z,19.77
2023-04-08T10:31:54.154Z,19.83
2023-04-08T10:37:16.074Z,19.87
2023-04-08T10:42:38.890Z,19.90
2023-04-08T10:48:19.016Z,19.92
2023-04-08T10:53:40.909Z,19.91
2023-04-08T10:59:03.873Z,19.90
2023-04-08T11:04:26.126Z,19.90
2023-04-08T11:09:49.823Z,19.88
2023-04-08T11:15:13.970Z,19.88
2023-04-08T11:20:37.395Z,19.88
2023-04-08T11:25:59.435Z,19.91
2023-04-08T11:31:24.692Z,19.97
2023-04-08T11:36:46.796Z,20.03
2023-04-08T11:42:08.886Z,20.09
2023-04-08T11:47:34.732Z,20.16
2023-04-08T11:52:57.329Z,20.15
2023-04-08T11:58:19.277Z,20.14
2023-04-08T12:03:55.215Z,20.10
2023-04-08T12:09:18.214Z,20.06
2023-04-08T12:14:40.373Z,20.01
2023-04-08T12:20:02.501Z,19.94
2023-04-08T12:25:24.404Z,19.89
2023-04-08T12:30:47.200Z,19.84
2023-04-08T12:36:09.647Z,19.78
2023-04-08T12:41:32.895Z,19.75
2023-04-08T12:46:55.314Z,19.74
2023-04-08T12:52:17.713Z,19.74
2023-04-08T12:57:39.660Z,19.74
2023-04-08T13:03:01.637Z,19.77
2023-04-08T13:08:23.547Z,19.79
2023-04-08T13:13:46.746Z,19.81
2023-04-08T13:19:09.007Z,19.85
2023-04-08T13:24:30.909Z,19.92
2023-04-08T13:29:52.831Z,19.98
2023-04-08T13:35:14.856Z,20.06
2023-04-08T13:40:36.800Z,20.08
2023-04-08T13:45:58.876Z,20.10
2023-04-08T13:51:20.842Z,20.05
2023-04-08T13:56:42.783Z,20.01
2023-04-08T14:02:04.829Z,19.98
2023-04-08T14:07:26.734Z,19.97
2023-04-08T14:12:48.730Z,19.96
2023-04-08T14:18:10.914Z,19.96
2023-04-08T14:23:32.800Z,19.93
2023-04-08T14:28:54.766Z,19.91
2023-04-08T14:34:16.819Z,19.82
2023-04-08T14:39:38.745Z,19.68
2023-04-08T14:45:01.285Z,19.56
2023-04-08T14:50:23.275Z,19.48
2023-04-08T14:55:45.172Z,19.41
2023-04-08T15:01:07.203Z,19.34
2023-04-08T15:06:29.165Z,19.32
2023-04-08T15:11:50.983Z,19.32
2023-04-08T15:17:12.826Z,19.42
2023-04-08T15:22:34.849Z,19.59
2023-04-08T15:27:56.744Z,19.78
2023-04-08T15:33:19.513Z,19.92
2023-04-08T15:38:41.730Z,20.09
2023-04-08T15:44:03.566Z,20.20
2023-04-08T15:49:25.713Z,20.29
2023-04-08T15:54:47.629Z,20.34
2023-04-08T16:00:11.012Z,20.31
2023-04-08T16:05:36.162Z,20.36
2023-04-08T16:11:02.924Z,20.37
2023-04-08T16:16:24.802Z,20.35
2023-04-08T16:21:46.662Z,20.37
2023-04-08T16:27:08.543Z,20.37
2023-04-08T16:32:30.941Z,20.37
2023-04-08T16:37:52.901Z,20.35
2023-04-08T16:43:15.717Z,20.32
2023-04-08T16:48:39.644Z,20.27
2023-04-08T16:54:01.523Z,20.22
2023-04-08T16:59:23.669Z,20.16
2023-04-08T17:04:50.165Z,20.10
2023-04-08T17:10:12.030Z,20.03
2023-04-08T17:15:36.732Z,19.96
2023-04-08T17:20:59.149Z,19.86
2023-04-08T17:26:22.553Z,19.79
2023-04-08T17:31:44.736Z,19.74
2023-04-08T17:37:06.739Z,19.76
2023-04-08T17:42:28.552Z,19.90
2023-04-08T17:47:50.770Z,20.13
2023-04-08T17:53:12.711Z,20.37
2023-04-08T17:58:34.561Z,20.58
2023-04-08T18:03:56.708Z,20.76
2023-04-08T18:09:18.888Z,20.90
2023-04-08T18:14:40.717Z,21.03
2023-04-08T18:20:02.647Z,21.13
2023-04-08T18:25:24.741Z,21.19
2023-04-08T18:30:51.468Z,21.22
2023-04-08T18:36:14.206Z,21.19
2023-04-08T18:41:37.583Z,21.10
2023-04-08T18:46:59.467Z,21.02
2023-04-08T18:52:21.399Z,20.91
2023-04-08T18:57:43.238Z,20.81
2023-04-08T19:03:06.330Z,20.71
2023-04-08T19:08:29.981Z,20.66
2023-04-08T19:13:52.009Z,20.63
2023-04-08T19:19:14.070Z,20.57
2023-04-08T19:24:37.178Z,20.51
2023-04-08T19:29:59.359Z,20.43
2023-04-08T19:35:21.217Z,20.35
2023-04-08T19:40:43.316Z,20.28
2023-04-08T19:46:05.202Z,20.21
2023-04-08T19:51:28.201Z,20.15
2023-04-08T19:56:50.358Z,20.10
2023-04-08T20:02:12.371Z,20.06
2023-04-08T20:07:34.282Z,20.03
2023-04-08T20:12:56.193Z,20.01
2023-04-08T20:18:18.356Z,19.94
2023-04-08T20:23:44.503Z,19.89
2023-04-08T20:29:06.933Z,19.83
2023-04-08T20:34:28.828Z,19.78
2023-04-08T20:39:50.643Z,19.74
2023-04-08T20:45:12.540Z,19.67
2023-04-08T20:50:34.880Z,19.64
2023-04-08T20:55:57.007Z,19.59
2023-04-08T21:01:19.000Z,19.56
2023-04-08T21:06:41.179Z,19.52
2023-04-08T21:12:03.524Z,19.48
2023-04-08T21:17:25.442Z,19.44
2023-04-08T21:22:47.380Z,19.40
2023-04-08T21:28:09.447Z,19.36
2023-04-08T21:33:31.277Z,19.32
2023-04-08T21:38:53.432Z,19.27
2023-04-08T21:44:15.898Z,19.25
2023-04-08T21:49:37.806Z,19.21
2023-04-08T21:54:59.729Z,19.17
2023-04-08T22:00:21.783Z,19.15
2023-04-08T22:05:43.646Z,19.13
2023-04-08T22:11:11.409Z,19.10
2023-04-08T22:16:33.274Z,19.07
2023-04-08T22:21:55.168Z,19.06
2023-04-08T22:27:17.171Z,19.03
2023-04-08T22:32:39.061Z,19.01
2023-04-08T22:38:01.154Z,18.97
2023-04-08T22:43:23.197Z,18.95
2023-04-08T22:48:45.351Z,18.95
2023-04-08T22:54:07.241Z,18.97
2023-04-08T22:59:29.305Z,18.99
2023-04-08T23:04:54.865Z,19.02
2023-04-08T23:10:16.614Z,19.00
2023-04-08T23:15:38.498Z,19.01
2023-04-08T23:21:00.400Z,18.98
2023-04-08T23:26:22.477Z,18.94
2023-04-08T23:31:44.649Z,18.90
2023-04-08T23:37:06.607Z,18.89
2023-04-08T23:42:28.728Z,18.86
2023-04-08T23:47:50.682Z,18.83
2023-04-08T23:53:12.530Z,18.82
2023-04-08T23:58:34.798Z,18.80
